createdAt,value
2023-01-29T00:01:46.596Z,6.30
2023-01-29T00:04:13.391Z,6.30
2023-01-29T00:06:40.224Z,6.30
2023-01-29T00:09:07.029Z,6.30
2023-01-29T00:11:33.862Z,6.30
2023-01-29T00:14:00.675Z,6.30
2023-01-29T00:16:27.684Z,6.30
2023-01-29T00:18:54.482Z,6.30
2023-01-29T00:21:22.880Z,6.30
2023-01-29T00:23:50.633Z,6.30
2023-01-29T00:26:17.694Z,6.30
2023-01-29T00:28:47.906Z,6.30
2023-01-29T00:31:25.350Z,6.30
2023-01-29T00:33:52.511Z,6.30
2023-01-29T00:36:21.134Z,6.30
2023-01-29T00:38:54.712Z,6.30
2023-01-29T00:41:41.925Z,6.30
2023-01-29T00:44:27.250Z,6.30
2023-01-29T00:46:54.833Z,6.20
2023-01-29T00:49:21.831Z,6.30
2023-01-29T00:52:08.946Z,6.20
2023-01-29T00:54:36.368Z,6.20
2023-01-29T00:57:04.466Z,6.20
2023-01-29T00:59:32.070Z,6.20
2023-01-29T01:02:17.591Z,6.20
2023-01-29T01:04:44.460Z,6.20
2023-01-29T01:09:56.115Z,6.20
2023-01-29T01:12:23.248Z,6.20
2023-01-29T01:14:50.109Z,6.20
2023-01-29T01:17:17.242Z,6.20
2023-01-29T01:19:44.133Z,6.20
2023-01-29T01:22:11.321Z,6.20
2023-01-29T01:24:38.565Z,6.20
2023-01-29T01:27:06.029Z,6.20
2023-01-29T01:29:33.380Z,6.20
2023-01-29T01:32:00.620Z,6.20
2023-01-29T01:34:27.937Z,6.20
2023-01-29T01:36:58.448Z,6.20
2023-01-29T01:39:25.404Z,6.20
2023-01-29T01:41:55.913Z,6.20
2023-01-29T01:44:55.880Z,6.20
2023-01-29T01:47:35.206Z,6.20
2023-01-29T01:50:09.398Z,6.20
2023-01-29T01:52:38.708Z,6.20
2023-01-29T01:55:06.925Z,6.20
2023-01-29T01:57:34.060Z,6.20
2023-01-29T02:00:12.856Z,6.20
2023-01-29T02:03:03.191Z,6.20
2023-01-29T02:05:51.498Z,6.20
2023-01-29T02:09:08.004Z,6.20
2023-01-29T02:11:36.904Z,6.10
2023-01-29T02:14:04.274Z,6.20
2023-01-29T02:16:33.741Z,6.10
2023-01-29T02:19:02.723Z,6.10
2023-01-29T02:21:55.096Z,6.20
2023-01-29T02:24:58.685Z,6.20
2023-01-29T02:27:41.022Z,6.20
2023-01-29T02:30:31.201Z,6.20
2023-01-29T02:33:22.497Z,6.20
2023-01-29T02:35:57.998Z,6.20
2023-01-29T02:38:30.661Z,6.30
2023-01-29T02:41:15.278Z,6.20
2023-01-29T02:43:47.413Z,6.30
2023-01-29T02:46:32.268Z,6.30
2023-01-29T02:49:10.270Z,6.30
2023-01-29T02:51:57.324Z,6.30
2023-01-29T02:54:39.564Z,6.30
2023-01-29T02:57:36.585Z,6.30
2023-01-29T03:00:07.060Z,6.30
2023-01-29T03:02:49.104Z,6.30
2023-01-29T03:05:23.912Z,6.30
2023-01-29T03:07:56.540Z,6.20
2023-01-29T03:10:37.141Z,6.20
2023-01-29T03:13:16.939Z,6.20
2023-01-29T03:15:51.323Z,6.20
2023-01-29T03:18:43.728Z,6.20
2023-01-29T03:21:39.212Z,6.20
2023-01-29T03:24:28.180Z,6.20
2023-01-29T03:27:15.339Z,6.10
2023-01-29T03:30:05.287Z,6.10
2023-01-29T03:32:52.607Z,6.10
2023-01-29T03:35:33.425Z,6.10
2023-01-29T03:38:01.197Z,6.10
2023-01-29T03:40:35.266Z,6.10
2023-01-29T03:43:20.274Z,6.10
2023-01-29T03:46:19.071Z,6.10
2023-01-29T03:49:03.420Z,6.00
2023-01-29T03:51:42.997Z,6.00
2023-01-29T03:54:15.664Z,6.00
2023-01-29T03:56:56.330Z,6.00
2023-01-29T03:59:41.177Z,6.00
2023-01-29T04:02:30.232Z,6.00
2023-01-29T04:05:06.042Z,5.90
2023-01-29T04:07:38.533Z,6.00
2023-01-29T04:10:21.064Z,5.90
2023-01-29T04:13:02.153Z,5.90
2023-01-29T04:15:34.208Z,5.90
2023-01-29T04:18:02.089Z,5.90
2023-01-29T04:20:49.685Z,5.90
2023-01-29T04:23:34.867Z,5.90
2023-01-29T04:26:21.823Z,5.90
2023-01-29T04:29:05.560Z,5.90
2023-01-29T04:31:53.257Z,5.90
2023-01-29T04:34:37.823Z,5.90
2023-01-29T04:37:12.690Z,5.90
2023-01-29T04:39:58.423Z,6.00
2023-01-29T04:42:40.633Z,6.00
2023-01-29T04:45:39.394Z,6.00
2023-01-29T04:48:37.585Z,6.00
2023-01-29T04:51:14.434Z,5.90
2023-01-29T04:53:50.389Z,5.90
2023-01-29T04:56:28.358Z,5.90
2023-01-29T04:59:13.049Z,6.00
2023-01-29T05:01:39.932Z,6.00
2023-01-29T05:04:11.613Z,5.90
2023-01-29T05:06:40.265Z,5.90
2023-01-29T05:09:08.295Z,5.90
2023-01-29T05:11:36.828Z,5.90
2023-01-29T05:14:06.668Z,5.90
2023-01-29T05:16:42.221Z,5.90
2023-01-29T05:19:14.698Z,5.90
2023-01-29T05:21:44.637Z,5.80
2023-01-29T05:24:19.608Z,5.80
2023-01-29T05:27:07.056Z,5.80
2023-01-29T05:29:33.882Z,5.80
2023-01-29T05:32:00.803Z,5.80
2023-01-29T05:34:27.752Z,5.80
2023-01-29T05:36:54.580Z,5.80
2023-01-29T05:39:21.584Z,5.80
2023-01-29T05:41:48.426Z,5.70
2023-01-29T05:44:15.404Z,5.80
2023-01-29T05:46:42.465Z,5.80
2023-01-29T05:49:09.710Z,5.80
2023-01-29T05:51:36.943Z,5.80
2023-01-29T05:54:04.011Z,5.80
2023-01-29T05:56:30.836Z,5.80
2023-01-29T05:58:57.657Z,5.80
2023-01-29T06:01:26.268Z,5.80
2023-01-29T06:03:53.060Z,5.90
2023-01-29T06:06:19.872Z,5.90
2023-01-29T06:08:46.699Z,5.90
2023-01-29T06:11:14.662Z,5.90
2023-01-29T06:13:41.572Z,5.90
2023-01-29T06:16:09.629Z,5.90
2023-01-29T06:18:37.858Z,5.90
2023-01-29T06:21:06.276Z,5.90
2023-01-29T06:23:33.428Z,5.90
2023-01-29T06:26:05.110Z,5.90
2023-01-29T06:28:32.262Z,5.90
2023-01-29T06:31:11.995Z,5.80
2023-01-29T06:33:47.206Z,5.80
2023-01-29T06:36:14.163Z,5.80
2023-01-29T06:38:41.553Z,5.80
2023-01-29T06:41:11.095Z,5.80
2023-01-29T06:43:39.030Z,5.80
2023-01-29T06:46:08.125Z,5.80
2023-01-29T06:48:35.806Z,5.80
2023-01-29T06:51:04.636Z,5.80
2023-01-29T06:53:32.009Z,5.80
2023-01-29T06:55:58.859Z,5.80
2023-01-29T06:58:25.947Z,5.80
2023-01-29T07:00:53.201Z,5.80
2023-01-29T07:03:20.211Z,5.80
2023-01-29T07:05:53.895Z,5.80
2023-01-29T07:08:22.726Z,5.80
2023-01-29T07:10:50.627Z,5.80
2023-01-29T07:13:18.571Z,5.80
2023-01-29T07:15:45.334Z,5.80
2023-01-29T07:18:12.252Z,5.80
2023-01-29T07:20:40.933Z,5.80
2023-01-29T07:23:11.270Z,5.80
2023-01-29T07:25:38.115Z,5.80
2023-01-29T07:28:05.672Z,5.80
2023-01-29T07:30:33.132Z,5.80
2023-01-29T07:33:08.242Z,5.80
2023-01-29T07:35:40.152Z,5.80
2023-01-29T07:38:11.411Z,5.80
2023-01-29T07:40:38.449Z,5.80
2023-01-29T07:43:08.674Z,5.80
2023-01-29T07:45:39.873Z,5.80
2023-01-29T07:48:10.647Z,5.80
2023-01-29T07:50:38.582Z,5.80
2023-01-29T07:53:05.471Z,5.70
2023-01-29T07:55:33.512Z,5.70
2023-01-29T07:58:04.009Z,5.70
2023-01-29T08:00:31.641Z,5.70
2023-01-29T08:03:06.814Z,5.70
2023-01-29T08:05:34.299Z,5.70
2023-01-29T08:08:06.885Z,5.70
2023-01-29T08:10:38.676Z,5.70
2023-01-29T08:13:06.306Z,5.80
2023-01-29T08:15:33.639Z,5.80
2023-01-29T08:18:02.599Z,5.80
2023-01-29T08:20:29.568Z,5.80
2023-01-29T08:23:05.057Z,5.80
2023-01-29T08:25:32.683Z,5.80
2023-01-29T08:28:00.563Z,5.90
2023-01-29T08:30:32.920Z,5.90
2023-01-29T08:32:59.974Z,5.90
2023-01-29T08:35:27.439Z,5.90
2023-01-29T08:37:59.766Z,5.90
2023-01-29T08:40:32.566Z,5.90
2023-01-29T08:43:06.179Z,6.00
2023-01-29T08:45:35.965Z,6.00
2023-01-29T08:48:03.078Z,6.00
2023-01-29T08:50:34.856Z,6.10
2023-01-29T08:53:04.148Z,6.00
2023-01-29T08:55:30.949Z,6.10
2023-01-29T08:57:57.769Z,6.10
2023-01-29T09:00:24.835Z,6.10
2023-01-29T09:02:51.873Z,6.10
2023-01-29T09:05:19.035Z,6.10
2023-01-29T09:07:46.169Z,6.10
2023-01-29T09:10:13.512Z,6.10
2023-01-29T09:12:40.376Z,6.10
2023-01-29T09:15:07.868Z,6.10
2023-01-29T09:17:34.720Z,6.10
2023-01-29T09:20:01.514Z,6.20
2023-01-29T09:22:29.017Z,6.20
2023-01-29T09:24:55.880Z,6.20
2023-01-29T09:27:22.803Z,6.30
2023-01-29T09:29:49.612Z,6.30
2023-01-29T09:32:23.211Z,6.30
2023-01-29T09:34:58.868Z,6.30
2023-01-29T09:37:26.087Z,6.30
2023-01-29T09:39:52.901Z,6.30
2023-01-29T09:42:31.489Z,6.40
2023-01-29T09:45:19.930Z,6.30
2023-01-29T09:47:48.791Z,6.40
2023-01-29T09:50:20.821Z,6.40
2023-01-29T09:52:53.947Z,6.40
2023-01-29T09:55:37.190Z,6.40
2023-01-29T09:58:27.376Z,6.40
2023-01-29T10:01:30.677Z,6.40
2023-01-29T10:05:04.891Z,6.40
2023-01-29T10:08:13.564Z,6.40
2023-01-29T10:11:12.938Z,6.40
2023-01-29T10:13:49.908Z,6.40
2023-01-29T10:16:31.943Z,6.40
2023-01-29T10:19:17.592Z,6.40
2023-01-29T10:21:58.385Z,6.40
2023-01-29T10:24:45.052Z,6.40
2023-01-29T10:27:15.507Z,6.40
2023-01-29T10:29:44.272Z,6.40
2023-01-29T10:32:20.831Z,6.40
2023-01-29T10:34:59.906Z,6.40
2023-01-29T10:37:43.601Z,6.50
2023-01-29T10:40:29.380Z,6.50
2023-01-29T10:43:27.376Z,6.50
2023-01-29T10:46:15.318Z,6.50
2023-01-29T10:49:04.634Z,6.50
2023-01-29T10:51:51.170Z,6.50
2023-01-29T10:54:38.851Z,6.60
2023-01-29T10:57:33.613Z,6.60
2023-01-29T11:00:23.864Z,6.60
2023-01-29T11:02:52.320Z,6.60
2023-01-29T11:05:40.371Z,6.60
2023-01-29T11:08:16.346Z,6.60
2023-01-29T11:11:06.723Z,6.70
2023-01-29T11:13:40.472Z,6.70
2023-01-29T11:16:09.313Z,6.70
2023-01-29T11:18:55.076Z,6.70
2023-01-29T11:21:22.953Z,6.70
2023-01-29T11:23:51.172Z,6.70
2023-01-29T11:26:25.018Z,6.70
2023-01-29T11:28:56.895Z,6.70
2023-01-29T11:31:46.070Z,6.80
2023-01-29T11:34:21.749Z,6.70
2023-01-29T11:37:03.798Z,6.70
2023-01-29T11:39:32.235Z,6.70
2023-01-29T11:42:05.140Z,6.80
2023-01-29T11:44:39.361Z,6.80
2023-01-29T11:47:08.843Z,6.80
2023-01-29T11:49:36.237Z,6.90
2023-01-29T11:52:07.841Z,6.90
2023-01-29T11:54:44.334Z,7.00
2023-01-29T11:57:24.397Z,7.00
2023-01-29T11:59:54.078Z,7.00
2023-01-29T12:02:30.847Z,7.10
2023-01-29T12:05:05.872Z,7.10
2023-01-29T12:07:33.826Z,7.10
2023-01-29T12:10:00.971Z,7.20
2023-01-29T12:12:31.293Z,7.20
2023-01-29T12:15:16.315Z,7.20
2023-01-29T12:17:49.353Z,7.20
2023-01-29T12:20:24.527Z,7.20
2023-01-29T12:23:04.117Z,7.20
2023-01-29T12:25:53.720Z,7.30
2023-01-29T12:28:42.383Z,7.30
2023-01-29T12:31:09.502Z,7.30
2023-01-29T12:33:53.711Z,7.30
2023-01-29T12:36:52.907Z,7.30
2023-01-29T12:39:20.772Z,7.30
2023-01-29T12:41:56.786Z,7.30
2023-01-29T12:44:37.060Z,7.30
2023-01-29T12:47:07.393Z,7.30
2023-01-29T12:49:37.277Z,7.30
2023-01-29T12:52:07.063Z,7.30
2023-01-29T12:54:42.294Z,7.30
2023-01-29T12:57:23.186Z,7.30
2023-01-29T12:59:56.610Z,7.30
2023-01-29T13:02:35.324Z,7.30
2023-01-29T13:05:19.562Z,7.30
2023-01-29T13:07:52.024Z,7.30
2023-01-29T13:10:24.617Z,7.30
2023-01-29T13:13:04.183Z,7.30
2023-01-29T13:15:36.357Z,7.30
2023-01-29T13:18:30.832Z,7.30
2023-01-29T13:20:58.530Z,7.30
2023-01-29T13:23:47.380Z,7.40
2023-01-29T13:26:19.000Z,7.30
2023-01-29T13:28:46.870Z,7.40
2023-01-29T13:31:34.713Z,7.40
2023-01-29T13:34:15.228Z,7.40
2023-01-29T13:36:51.837Z,7.40
2023-01-29T13:39:24.267Z,7.40
2023-01-29T13:41:52.866Z,7.40
2023-01-29T13:44:37.791Z,7.40
2023-01-29T13:47:10.691Z,7.40
2023-01-29T13:50:15.713Z,7.40
2023-01-29T13:53:26.552Z,7.40
2023-01-29T13:55:53.428Z,7.40
2023-01-29T13:58:32.421Z,7.30
2023-01-29T14:01:01.068Z,7.30
2023-01-29T14:03:29.920Z,7.30
2023-01-29T14:06:02.924Z,7.30
2023-01-29T14:08:37.212Z,7.30
2023-01-29T14:11:16.241Z,7.30
2023-01-29T14:13:47.557Z,7.30
2023-01-29T14:16:14.522Z,7.30
2023-01-29T14:18:49.047Z,7.30
2023-01-29T14:21:28.388Z,7.30
2023-01-29T14:24:20.949Z,7.30
2023-01-29T14:26:53.872Z,7.30
2023-01-29T14:29:34.697Z,7.30
2023-01-29T14:32:07.980Z,7.30
2023-01-29T14:35:01.224Z,7.30
2023-01-29T14:37:38.795Z,7.30
2023-01-29T14:40:18.704Z,7.30
2023-01-29T14:43:02.438Z,7.30
2023-01-29T14:45:37.316Z,7.20
2023-01-29T14:48:19.927Z,7.20
2023-01-29T14:50:49.607Z,7.20
2023-01-29T14:53:28.150Z,7.20
2023-01-29T14:55:58.001Z,7.20
2023-01-29T14:58:48.134Z,7.20
2023-01-29T15:01:37.750Z,7.20
2023-01-29T15:04:05.768Z,7.20
2023-01-29T15:06:42.832Z,7.20
2023-01-29T15:09:32.769Z,7.10
2023-01-29T15:12:11.881Z,7.10
2023-01-29T15:14:47.038Z,7.20
2023-01-29T15:17:36.629Z,7.10
2023-01-29T15:20:29.134Z,7.10
2023-01-29T15:22:56.291Z,7.10
2023-01-29T15:25:23.616Z,7.10
2023-01-29T15:27:50.711Z,7.10
2023-01-29T15:30:28.174Z,7.10
2023-01-29T15:32:56.465Z,7.10
2023-01-29T15:35:30.743Z,7.10
2023-01-29T15:38:22.965Z,7.10
2023-01-29T15:41:00.930Z,7.10
2023-01-29T15:43:31.098Z,7.10
2023-01-29T15:46:10.418Z,7.00
2023-01-29T15:48:41.461Z,7.00
2023-01-29T15:51:12.020Z,7.00
2023-01-29T15:53:48.310Z,7.00
2023-01-29T15:56:19.294Z,7.00
2023-01-29T15:58:50.859Z,7.00
2023-01-29T16:01:18.096Z,7.00
2023-01-29T16:03:45.153Z,7.00
2023-01-29T16:06:12.312Z,7.00
2023-01-29T16:08:40.596Z,7.00
2023-01-29T16:11:08.566Z,6.90
2023-01-29T16:13:39.974Z,6.90
2023-01-29T16:16:21.041Z,6.90
2023-01-29T16:18:59.824Z,6.90
2023-01-29T16:21:39.972Z,6.90
2023-01-29T16:24:15.826Z,6.90
2023-01-29T16:26:45.829Z,6.90
2023-01-29T16:29:15.882Z,6.80
2023-01-29T16:31:45.759Z,6.80
2023-01-29T16:34:33.082Z,6.80
2023-01-29T16:37:02.454Z,6.80
2023-01-29T16:39:37.003Z,6.80
2023-01-29T16:42:10.666Z,6.70
2023-01-29T16:44:39.916Z,6.70
2023-01-29T16:47:33.097Z,6.70
2023-01-29T16:50:01.981Z,6.70
2023-01-29T16:52:34.097Z,6.70
2023-01-29T16:55:22.172Z,6.70
2023-01-29T16:57:54.056Z,6.70
2023-01-29T17:00:29.220Z,6.60
2023-01-29T17:03:02.005Z,6.60
2023-01-29T17:05:31.576Z,6.60
2023-01-29T17:07:59.694Z,6.60
2023-01-29T17:10:28.901Z,6.60
2023-01-29T17:12:57.610Z,6.60
2023-01-29T17:15:35.038Z,6.60
2023-01-29T17:18:03.084Z,6.50
2023-01-29T17:20:30.464Z,6.50
2023-01-29T17:22:57.331Z,6.50
2023-01-29T17:25:24.242Z,6.50
2023-01-29T17:27:53.921Z,6.50
2023-01-29T17:30:31.138Z,6.40
2023-01-29T17:32:57.966Z,6.40
2023-01-29T17:35:24.865Z,6.40
2023-01-29T17:37:51.695Z,6.40
2023-01-29T17:40:28.132Z,6.40
2023-01-29T17:42:54.996Z,6.30
2023-01-29T17:45:21.783Z,6.30
2023-01-29T17:47:48.576Z,6.30
2023-01-29T17:50:23.371Z,6.30
2023-01-29T17:52:50.339Z,6.30
2023-01-29T17:55:17.798Z,6.30
2023-01-29T17:57:44.839Z,6.30
2023-01-29T18:00:31.891Z,6.20
2023-01-29T18:03:02.133Z,6.20
2023-01-29T18:05:29.663Z,6.20
2023-01-29T18:07:56.558Z,6.20
2023-01-29T18:10:23.555Z,6.10
2023-01-29T18:12:50.676Z,6.10
2023-01-29T18:15:18.056Z,6.00
2023-01-29T18:17:45.282Z,6.00
2023-01-29T18:20:25.678Z,6.00
2023-01-29T18:22:53.083Z,6.00
2023-01-29T18:25:20.501Z,6.00
2023-01-29T18:27:47.769Z,6.00
2023-01-29T18:30:15.095Z,6.00
2023-01-29T18:32:41.958Z,6.00
2023-01-29T18:35:09.324Z,5.90
2023-01-29T18:37:36.331Z,5.90
2023-01-29T18:40:03.234Z,5.90
2023-01-29T18:42:33.108Z,5.90
2023-01-29T18:44:59.905Z,5.90
2023-01-29T18:47:26.696Z,5.90
2023-01-29T18:49:55.061Z,5.90
2023-01-29T18:52:21.911Z,5.90
2023-01-29T18:54:49.707Z,5.90
2023-01-29T18:58:26.870Z,5.90
2023-01-29T19:00:04.449Z,5.90
2023-01-29T19:02:31.513Z,5.80
2023-01-29T19:04:58.413Z,5.90
2023-01-29T19:07:25.336Z,5.90
2023-01-29T19:09:52.116Z,5.80
2023-01-29T19:12:19.194Z,5.80
2023-01-29T19:14:46.307Z,5.90
2023-01-29T19:17:13.276Z,5.80
2023-01-29T19:19:40.135Z,5.80
2023-01-29T19:22:08.035Z,5.80
2023-01-29T19:24:39.313Z,5.80
2023-01-29T19:27:09.021Z,5.80
2023-01-29T19:29:36.325Z,5.80
2023-01-29T19:32:03.227Z,5.80
2023-01-29T19:34:30.097Z,5.80
2023-01-29T19:36:56.865Z,5.80
2023-01-29T19:39:23.866Z,5.80
2023-01-29T19:41:50.968Z,5.80
2023-01-29T19:44:17.755Z,5.80
2023-01-29T19:46:46.798Z,5.80
2023-01-29T19:49:13.986Z,5.80
2023-01-29T19:51:41.420Z,5.80
2023-01-29T19:54:09.465Z,5.80
2023-01-29T19:56:36.588Z,5.80
2023-01-29T19:59:05.049Z,5.80
2023-01-29T20:01:31.832Z,5.80
2023-01-29T20:03:58.628Z,5.70
2023-01-29T20:06:30.946Z,5.80
2023-01-29T20:08:58.201Z,5.70
2023-01-29T20:11:25.315Z,5.80
2023-01-29T20:13:53.462Z,5.70
2023-01-29T20:16:22.130Z,5.70
2023-01-29T20:18:49.272Z,5.70
2023-01-29T20:21:22.710Z,5.70
2023-01-29T20:23:50.755Z,5.80
2023-01-29T20:26:18.204Z,5.80
2023-01-29T20:28:49.245Z,5.80
2023-01-29T20:31:16.842Z,5.70
2023-01-29T20:33:44.269Z,5.70
2023-01-29T20:36:15.079Z,5.70
2023-01-29T20:38:41.970Z,5.70
2023-01-29T20:41:14.698Z,5.70
2023-01-29T20:43:42.805Z,5.70
2023-01-29T20:46:09.970Z,5.70
2023-01-29T20:48:36.979Z,5.70
2023-01-29T20:51:05.286Z,5.70
2023-01-29T20:53:32.463Z,5.70
2023-01-29T20:55:59.366Z,5.70
2023-01-29T20:58:26.382Z,5.60
2023-01-29T21:00:53.211Z,5.60
2023-01-29T21:03:20.174Z,5.60
2023-01-29T21:05:47.037Z,5.60
2023-01-29T21:08:13.831Z,5.60
2023-01-29T21:10:43.090Z,5.60
2023-01-29T21:13:10.174Z,5.60
2023-01-29T21:15:36.982Z,5.60
2023-01-29T21:18:06.000Z,5.50
2023-01-29T21:20:32.903Z,5.60
2023-01-29T21:22:59.766Z,5.50
2023-01-29T21:25:26.620Z,5.50
2023-01-29T21:27:53.399Z,5.50
2023-01-29T21:30:20.503Z,5.50
2023-01-29T21:32:47.567Z,5.50
2023-01-29T21:35:15.047Z,5.50
2023-01-29T21:37:42.240Z,5.50
2023-01-29T21:40:09.854Z,5.50
2023-01-29T21:42:55.063Z,5.50
2023-01-29T21:45:21.847Z,5.50
2023-01-29T21:47:48.611Z,5.50
2023-01-29T21:50:16.282Z,5.50
2023-01-29T21:52:43.226Z,5.50
2023-01-29T21:55:10.056Z,5.50
2023-01-29T21:57:36.929Z,5.50
2023-01-29T22:00:04.229Z,5.50
2023-01-29T22:02:32.169Z,5.50
2023-01-29T22:05:17.768Z,5.50
2023-01-29T22:07:45.405Z,5.50
2023-01-29T22:10:12.478Z,5.50
2023-01-29T22:12:39.987Z,5.60
2023-01-29T22:15:08.284Z,5.50
2023-01-29T22:17:35.394Z,5.50
2023-01-29T22:20:02.849Z,5.60
2023-01-29T22:22:29.687Z,5.60
2023-01-29T22:24:58.786Z,5.60
2023-01-29T22:27:25.836Z,5.60
2023-01-29T22:29:52.673Z,5.60
2023-01-29T22:32:19.495Z,5.60
2023-01-29T22:34:46.618Z,5.70
2023-01-29T22:37:13.466Z,5.60
2023-01-29T22:39:40.275Z,5.70
2023-01-29T22:42:07.064Z,5.70
2023-01-29T22:44:34.097Z,5.70
2023-01-29T22:47:01.235Z,5.70
2023-01-29T22:49:30.372Z,5.70
2023-01-29T22:52:12.611Z,5.70
2023-01-29T22:54:41.569Z,5.70
2023-01-29T22:57:13.506Z,5.70
2023-01-29T22:59:40.811Z,5.80
2023-01-29T23:02:08.254Z,5.80
2023-01-29T23:04:35.183Z,5.80
2023-01-29T23:07:01.974Z,5.80
2023-01-29T23:09:29.176Z,5.80
2023-01-29T23:11:56.005Z,5.80
2023-01-29T23:14:22.790Z,5.80
2023-01-29T23:16:49.852Z,5.80
2023-01-29T23:19:16.646Z,5.80
2023-01-29T23:21:43.488Z,5.90
2023-01-29T23:24:10.697Z,5.90
2023-01-29T23:26:56.059Z,5.90
2023-01-29T23:29:22.951Z,5.90
2023-01-29T23:31:49.873Z,5.90
2023-01-29T23:34:16.942Z,5.90
2023-01-29T23:36:44.115Z,5.90
2023-01-29T23:39:10.999Z,5.90
2023-01-29T23:41:38.015Z,5.90
2023-01-29T23:44:04.946Z,6.00
2023-01-29T23:46:32.191Z,6.00
2023-01-29T23:48:59.081Z,6.00
2023-01-29T23:51:26.241Z,6.00
2023-01-29T23:53:53.138Z,6.00
2023-01-29T23:56:20.266Z,6.00
2023-01-29T23:58:47.217Z,6.00
